Time;durP1;ratioP1;P1;durP2;ratioP2;P2;SDS_P1;SDS_P2;PMS_P1;PMS_P2;Temp;Humidity;BMP_temperature;BMP_pressure;BME280_temperature;BME280_humidity;BME280_pressure;Samples;Min_cycle;Max_cycle;Signal;HPM_P1;HPM_P2
2023/02/21 02:15:42;;;;;;;5.93;2.65;;;;;;;13.05;54.74;96698.91;5111508;27;20448;-52
2023/02/21 02:18:22;;;;;;;5.55;2.58;;;;;;;12.70;56.92;96696.31;5081938;27;20071;-50
2023/02/21 02:21:08;;;;;;;6.00;2.70;;;;;;;12.73;57.70;96696.00;5101217;27;20075;-49
2023/02/21 02:24:00;;;;;;;4.70;2.20;;;;;;;12.80;58.07;96697.03;5094883;28;20591;-49
2023/02/21 02:27:07;;;;;;;5.40;2.70;;;;;;;12.79;58.01;96690.91;5096859;27;20083;-50
2023/02/21 02:29:49;;;;;;;5.97;2.45;;;;;;;12.03;61.36;96696.63;5106473;27;20156;-48
2023/02/21 02:32:32;;;;;;;5.03;2.53;;;;;;;12.56;59.73;96693.22;5104571;27;20075;-48
2023/02/21 02:35:05;;;;;;;6.05;2.55;;;;;;;12.32;60.70;96687.69;5096520;27;20079;-51
2023/02/21 02:37:39;;;;;;;7.32;2.85;;;;;;;12.28;61.46;96683.66;5105779;27;20062;-47
2023/02/21 02:40:13;;;;;;;6.47;2.78;;;;;;;12.24;62.29;96682.31;5100134;27;20068;-47
2023/02/21 02:42:49;;;;;;;6.75;3.05;;;;;;;12.67;59.59;96686.84;5097219;28;20083;-49
2023/02/21 02:45:21;;;;;;;4.32;2.28;;;;;;;12.64;59.87;96686.34;5093502;27;20071;-52
2023/02/21 02:47:52;;;;;;;5.72;2.20;;;;;;;12.63;58.93;96679.34;5101934;27;20071;-45
2023/02/21 02:50:23;;;;;;;5.90;2.60;;;;;;;12.67;58.43;96675.44;5101943;27;20083;-48
2023/02/21 02:52:52;;;;;;;4.30;2.90;;;;;;;12.28;60.42;96688.94;5098991;27;20071;-54
2023/02/21 02:55:26;;;;;;;3.90;2.47;;;;;;;12.46;59.36;96681.06;5099008;28;21421;-50
2023/02/21 02:57:55;;;;;;;4.00;2.25;;;;;;;12.43;59.37;96684.81;5102557;28;20454;-49
2023/02/21 03:00:23;;;;;;;7.10;2.22;;;;;;;12.30;60.34;96681.72;5099515;27;20079;-47
2023/02/21 03:03:08;;;;;;;4.60;2.67;;;;;;;12.18;60.89;96680.25;5102328;27;20079;-49
2023/02/21 03:05:49;;;;;;;6.18;2.55;;;;;;;12.37;59.33;96682.78;5100582;27;20067;-49
2023/02/21 03:08:21;;;;;;;5.57;2.35;;;;;;;12.57;58.18;96675.53;5099117;27;20067;-52
2023/02/21 03:10:55;;;;;;;3.97;2.28;;;;;;;12.24;60.09;96684.94;5101340;27;20079;-51
2023/02/21 03:13:33;;;;;;;5.45;2.45;;;;;;;12.32;60.62;96679.75;5105844;27;20512;-50
2023/02/21 03:16:08;;;;;;;5.50;2.30;;;;;;;11.57;64.23;96681.66;5093180;27;20066;-48
2023/02/21 03:18:41;;;;;;;3.83;2.55;;;;;;;11.82;65.88;96685.44;5101777;27;20098;-47
2023/02/21 03:21:17;;;;;;;8.23;2.83;;;;;;;11.52;65.85;96684.72;5108272;27;20071;-44
2023/02/21 03:23:48;;;;;;;4.28;2.70;;;;;;;11.94;63.77;96681.66;5103566;27;20060;-47
2023/02/21 03:26:16;;;;;;;;;;;;;;;11.65;66.65;96679.94;5099811;27;20547;-52
2023/02/21 03:28:45;;;;;;;5.63;2.80;;;;;;;11.18;70.59;96681.75;5104928;28;20352;-48
2023/02/21 03:31:14;;;;;;;5.63;3.40;;;;;;;11.14;77.84;96685.69;5103046;27;20082;-51
2023/02/21 03:33:43;;;;;;;7.25;3.35;;;;;;;11.24;79.22;96680.38;5097960;27;20068;-51
2023/02/21 03:36:14;;;;;;;5.93;3.20;;;;;;;11.07;84.40;96677.50;5101279;27;20090;-54
2023/02/21 03:38:42;;;;;;;5.97;3.50;;;;;;;10.98;85.54;96675.72;5102027;27;20079;-52
2023/02/21 03:41:12;;;;;;;8.25;3.13;;;;;;;11.43;80.56;96676.84;5100302;27;20083;-49
2023/02/21 03:43:41;;;;;;;4.38;2.83;;;;;;;11.43;77.53;96684.78;5096443;28;20074;-50
2023/02/21 03:46:09;;;;;;;7.53;2.85;;;;;;;10.83;87.67;96679.75;5096697;27;20090;-51
2023/02/21 03:48:37;;;;;;;6.35;3.25;;;;;;;11.23;85.74;96684.81;5099854;27;20083;-54
2023/02/21 03:51:06;;;;;;;6.38;2.80;;;;;;;11.10;88.83;96685.13;5096736;27;20188;-53
2023/02/21 03:53:35;;;;;;;7.20;2.90;;;;;;;11.36;89.14;96677.44;5101996;27;20088;-51
2023/02/21 03:56:04;;;;;;;10.82;3.80;;;;;;;11.68;82.69;96678.81;5096353;27;20067;-51
2023/02/21 03:58:33;;;;;;;6.35;3.45;;;;;;;11.51;85.20;96667.22;5094070;28;20091;-45
2023/02/21 04:01:02;;;;;;;8.18;3.20;;;;;;;11.47;85.90;96663.22;5098523;27;20075;-47
2023/02/21 04:03:30;;;;;;;10.18;3.70;;;;;;;11.65;85.42;96660.63;5095821;28;20086;-49
2023/02/21 04:05:59;;;;;;;7.10;3.30;;;;;;;11.65;85.38;96658.81;5099138;27;20078;-48
2023/02/21 04:08:27;;;;;;;6.18;2.97;;;;;;;11.81;81.40;96649.44;5101858;27;20534;-50
2023/02/21 04:10:57;;;;;;;9.32;3.10;;;;;;;11.63;87.67;96654.66;5110046;27;20501;-50
2023/02/21 04:13:25;;;;;;;4.28;2.30;;;;;;;11.22;89.56;96662.06;5103638;28;20059;-45
2023/02/21 04:15:53;;;;;;;7.32;2.78;;;;;;;11.51;90.49;96655.81;5102334;28;20086;-52
2023/02/21 04:18:21;;;;;;;5.20;3.13;;;;;;;11.40;91.42;96652.41;5079267;28;20806;-52
2023/02/21 04:20:50;;;;;;;6.30;3.10;;;;;;;11.49;91.02;96647.19;5077176;28;20150;-50
2023/02/21 04:23:19;;;;;;;7.00;3.38;;;;;;;11.25;94.91;96651.22;5084166;28;20139;-52
2023/02/21 04:25:47;;;;;;;9.65;3.20;;;;;;;11.25;91.58;96651.22;5097133;28;20079;-53
2023/02/21 04:28:17;;;;;;;7.97;3.13;;;;;;;11.62;91.03;96645.88;5101649;28;20557;-46
2023/02/21 04:30:46;;;;;;;3.88;2.50;;;;;;;12.02;86.62;96643.91;5098214;28;20763;-52
2023/02/21 04:33:14;;;;;;;4.22;2.60;;;;;;;11.46;91.65;96651.00;5099291;28;20086;-45
2023/02/21 04:35:42;;;;;;;8.15;3.45;;;;;;;11.36;93.01;96650.19;5104506;28;20086;-51
2023/02/21 04:38:10;;;;;;;5.78;2.72;;;;;;;11.20;98.18;96656.06;5108329;27;20094;-50
2023/02/21 04:40:39;;;;;;;6.90;3.10;;;;;;;11.30;96.02;96658.69;5099832;27;20091;-48
2023/02/21 04:43:07;;;;;;;7.35;3.20;;;;;;;11.02;98.38;96663.91;5115581;27;20084;-49
2023/02/21 04:45:36;;;;;;;5.93;3.05;;;;;;;11.10;95.92;96657.91;5108907;27;20075;-50
2023/02/21 04:48:05;;;;;;;6.13;3.10;;;;;;;11.34;91.66;96663.53;5115770;27;20586;-48
2023/02/21 04:50:33;;;;;;;5.80;2.78;;;;;;;11.02;92.83;96663.06;5105183;27;20083;-47
2023/02/21 04:53:02;;;;;;;6.20;3.35;;;;;;;10.57;100.00;96667.16;5101000;28;20110;-50
2023/02/21 04:55:30;;;;;;;6.22;2.88;;;;;;;10.79;100.00;96657.28;5106776;27;20075;-49
2023/02/21 04:57:58;;;;;;;5.45;3.40;;;;;;;10.51;100.00;96659.78;5105813;27;20079;-53
2023/02/21 05:00:26;;;;;;;3.85;2.55;;;;;;;10.47;100.00;96657.59;5096998;27;20593;-54
2023/02/21 05:02:56;;;;;;;4.97;2.72;;;;;;;10.36;100.00;96650.66;5096306;27;20079;-48
2023/02/21 05:05:25;;;;;;;9.43;2.72;;;;;;;10.72;100.00;96645.63;5115158;27;20071;-50
2023/02/21 05:07:53;;;;;;;6.78;3.20;;;;;;;10.35;100.00;96646.31;5107374;27;20113;-51
2023/02/21 05:10:22;;;;;;;7.40;3.05;;;;;;;10.48;100.00;96638.16;5121724;27;20093;-52
2023/02/21 05:12:54;;;;;;;6.32;2.60;;;;;;;10.85;100.00;96638.25;5107510;27;20082;-49
2023/02/21 05:15:22;;;;;;;5.05;3.03;;;;;;;10.12;100.00;96643.13;5122545;27;20078;-51
2023/02/21 05:17:50;;;;;;;5.97;2.88;;;;;;;10.49;100.00;96630.09;5112805;27;20074;-54
2023/02/21 05:20:20;;;;;;;7.88;2.83;;;;;;;10.19;100.00;96634.50;5118933;27;20074;-52
2023/02/21 05:22:49;;;;;;;5.55;2.80;;;;;;;10.74;100.00;96635.78;5115686;27;20079;-49
2023/02/21 05:25:19;;;;;;;5.68;3.00;;;;;;;10.24;100.00;96628.81;5113484;27;20091;-50
2023/02/21 05:27:48;;;;;;;;;;;;;;;10.49;100.00;96630.09;5109563;27;20486;-51
2023/02/21 05:30:18;;;;;;;6.30;3.28;;;;;;;10.45;100.00;96634.81;5111924;27;19955;-50
2023/02/21 05:32:47;;;;;;;5.43;2.65;;;;;;;10.30;100.00;96638.00;5116219;27;20078;-51
2023/02/21 05:35:16;;;;;;;6.88;3.17;;;;;;;10.42;100.00;96634.25;5104195;27;20076;-51
2023/02/21 05:37:45;;;;;;;4.97;2.88;;;;;;;10.62;100.00;96640.34;5115030;27;20531;-47
2023/02/21 05:40:15;;;;;;;6.43;3.30;;;;;;;10.52;100.00;96637.72;5112134;27;20078;-49
2023/02/21 05:42:44;;;;;;;4.83;3.10;;;;;;;10.65;99.58;96648.81;5116775;27;20538;-45
2023/02/21 05:45:12;;;;;;;4.60;2.70;;;;;;;11.14;91.91;96648.72;5109593;27;20083;-49
2023/02/21 05:47:40;;;;;;;7.07;3.30;;;;;;;11.52;83.79;96653.03;5116710;27;20550;-52
2023/02/21 05:50:09;;;;;;;7.03;2.88;;;;;;;11.43;82.54;96653.91;5109066;27;20079;-52
2023/02/21 05:52:37;;;;;;;6.72;3.28;;;;;;;10.99;83.35;96671.28;5119412;27;20553;-49
2023/02/21 05:55:07;;;;;;;8.80;3.10;;;;;;;10.79;87.77;96666.00;5111213;27;20090;-49
2023/02/21 05:57:38;;;;;;;5.03;3.20;;;;;;;10.93;89.08;96660.28;5114532;27;20083;-52
2023/02/21 06:00:13;;;;;;;7.20;3.30;;;;;;;10.91;86.91;96674.63;5112933;27;20079;-51
2023/02/21 06:02:41;;;;;;;9.50;3.60;;;;;;;10.92;91.61;96663.09;5108875;27;20098;-51
2023/02/21 06:05:10;;;;;;;9.27;3.30;;;;;;;11.16;87.19;96660.81;5108575;27;20079;-54
2023/02/21 06:07:39;;;;;;;6.30;3.08;;;;;;;11.51;80.49;96664.56;5115404;27;20089;-51
2023/02/21 06:10:08;;;;;;;6.57;3.03;;;;;;;11.63;78.20;96665.22;5112833;27;20087;-48
2023/02/21 06:12:37;;;;;;;6.90;3.13;;;;;;;11.67;76.36;96665.78;5110083;27;20491;-46
2023/02/21 06:15:06;;;;;;;6.75;3.20;;;;;;;11.70;74.53;96666.31;5116288;27;20070;-45
2023/02/21 06:17:34;;;;;;;6.20;3.28;;;;;;;11.70;74.69;96676.03;5121853;27;20089;-53
2023/02/21 06:20:02;;;;;;;7.38;3.03;;;;;;;11.71;76.81;96678.53;5116974;27;20086;-51
2023/02/21 06:22:31;;;;;;;10.30;2.85;;;;;;;11.77;71.73;96682.41;5110239;27;20483;-50
2023/02/21 06:24:59;;;;;;;9.60;2.83;;;;;;;11.10;85.80;96684.31;5109423;27;20075;-48
2023/02/21 06:27:29;;;;;;;4.65;2.45;;;;;;;11.37;77.62;96681.72;5120732;27;20478;-48
2023/02/21 06:29:57;;;;;;;5.60;2.60;;;;;;;11.49;74.77;96685.00;5109296;27;20452;-49
2023/02/21 06:32:26;;;;;;;4.53;3.00;;;;;;;11.47;73.23;96683.50;5127338;27;20093;-49
2023/02/21 06:34:54;;;;;;;4.68;2.95;;;;;;;11.60;72.30;96682.19;5106842;27;20090;-53
2023/02/21 06:37:23;;;;;;;8.00;3.22;;;;;;;11.58;72.55;96683.31;5113723;27;20079;-49
2023/02/21 06:39:51;;;;;;;6.75;3.10;;;;;;;11.73;72.13;96695.06;5112962;27;20090;-52
2023/02/21 06:42:20;;;;;;;8.30;3.15;;;;;;;11.83;71.06;96692.38;5110149;27;20086;-47
2023/02/21 06:44:49;;;;;;;5.78;3.35;;;;;;;11.97;71.72;96693.72;5108097;27;20183;-53
2023/02/21 06:47:18;;;;;;;6.88;3.22;;;;;;;12.04;71.09;96690.38;5103416;27;20535;-51
2023/02/21 06:49:46;;;;;;;5.13;2.97;;;;;;;12.16;69.10;96690.16;5109155;27;20075;-49
2023/02/21 06:52:15;;;;;;;5.78;3.00;;;;;;;12.17;68.83;96694.44;5117285;27;20466;-50
2023/02/21 06:54:44;;;;;;;7.75;3.47;;;;;;;11.23;80.32;96705.13;5113471;27;20079;-53
2023/02/21 06:57:13;;;;;;;7.20;3.80;;;;;;;12.05;71.53;96699.13;5106703;27;20337;-53
2023/02/21 06:59:41;;;;;;;5.88;3.60;;;;;;;12.16;69.21;96704.19;5107567;28;20090;-51
2023/02/21 07:02:17;;;;;;;10.07;3.85;;;;;;;12.30;67.81;96703.69;5111623;27;20076;-47
2023/02/21 07:04:45;;;;;;;6.30;3.40;;;;;;;12.55;66.41;96703.94;5106381;27;20082;-52
2023/02/21 07:07:14;;;;;;;7.10;3.47;;;;;;;11.98;72.10;96708.63;5104466;27;20082;-45
2023/02/21 07:09:42;;;;;;;6.43;3.00;;;;;;;11.63;72.87;96705.69;5115302;27;20078;-54
2023/02/21 07:12:11;;;;;;;7.78;3.97;;;;;;;12.19;72.15;96703.09;5109551;27;20075;-46
2023/02/21 07:14:39;;;;;;;7.35;4.45;;;;;;;12.00;72.78;96696.06;5110365;27;20083;-53
2023/02/21 07:17:07;;;;;;;6.88;3.83;;;;;;;12.53;68.94;96692.69;5119556;27;20071;-48
2023/02/21 07:19:37;;;;;;;7.30;3.83;;;;;;;12.61;69.46;96697.22;5104396;27;20087;-54
2023/02/21 07:22:05;;;;;;;6.85;4.07;;;;;;;12.43;70.57;96703.34;5112975;27;20183;-48
2023/02/21 07:24:34;;;;;;;7.20;3.40;;;;;;;12.03;74.29;96699.25;5108014;27;20090;-50
2023/02/21 07:27:04;;;;;;;7.53;3.33;;;;;;;12.55;72.10;96702.13;5109903;27;20694;-55
2023/02/21 07:29:32;;;;;;;11.07;3.75;;;;;;;13.16;65.21;96707.59;5114857;27;20509;-53
2023/02/21 07:32:01;;;;;;;8.48;3.83;;;;;;;13.03;65.12;96708.00;5102940;28;20703;-49
2023/02/21 07:34:29;;;;;;;7.18;3.83;;;;;;;12.39;74.11;96715.19;5108764;27;20075;-55
2023/02/21 07:36:59;;;;;;;9.55;3.45;;;;;;;13.09;68.34;96712.66;5104507;27;20087;-54
2023/02/21 07:39:27;;;;;;;4.97;3.15;;;;;;;12.01;77.08;96722.38;5110714;27;20079;-53
2023/02/21 07:41:55;;;;;;;7.38;3.80;;;;;;;12.32;80.11;96722.06;5111493;27;20517;-47
2023/02/21 07:44:23;;;;;;;7.82;3.40;;;;;;;12.24;78.28;96721.97;5105233;28;20105;-51
2023/02/21 07:46:52;;;;;;;8.88;3.45;;;;;;;12.66;75.46;96732.81;5099351;28;20079;-54
2023/02/21 07:49:20;;;;;;;9.07;3.30;;;;;;;12.48;74.85;96726.69;5111438;27;20522;-53
2023/02/21 07:51:48;;;;;;;5.93;3.10;;;;;;;13.29;68.62;96727.41;5117133;27;20090;-53
2023/02/21 07:54:18;;;;;;;9.93;3.28;;;;;;;12.69;73.63;96736.97;5110850;27;20091;-52
2023/02/21 07:56:48;;;;;;;7.30;3.95;;;;;;;12.58;75.85;96728.28;5107784;28;20507;-50
2023/02/21 07:59:16;;;;;;;6.55;3.20;;;;;;;12.43;76.23;96724.50;5107737;28;20071;-52
2023/02/21 08:01:46;;;;;;;9.25;2.92;;;;;;;13.22;72.36;96728.16;5110639;27;20071;-50
2023/02/21 08:04:19;;;;;;;4.93;2.77;;;;;;;12.83;74.55;96728.50;5107271;28;20136;-51
2023/02/21 08:06:48;;;;;;;6.57;3.35;;;;;;;13.48;69.59;96720.25;5105790;28;20063;-50
2023/02/21 08:09:17;;;;;;;5.80;3.28;;;;;;;13.34;68.37;96728.75;5113024;27;20070;-49
2023/02/21 08:11:45;;;;;;;5.55;3.22;;;;;;;13.49;70.41;96727.22;5113906;27;20083;-48
2023/02/21 08:14:14;;;;;;;6.47;3.50;;;;;;;13.73;72.95;96723.88;5108909;27;20071;-48
2023/02/21 08:16:42;;;;;;;6.68;3.00;;;;;;;14.01;65.46;96722.69;5102382;28;20087;-50
2023/02/21 08:19:10;;;;;;;6.45;2.78;;;;;;;13.40;71.64;96728.97;5101799;28;20496;-46
2023/02/21 08:21:39;;;;;;;5.65;3.17;;;;;;;13.78;66.64;96732.19;5105775;28;20093;-54
2023/02/21 08:24:07;;;;;;;8.27;3.65;;;;;;;13.89;69.76;96733.72;5105359;27;20083;-51
2023/02/21 08:26:37;;;;;;;8.10;4.00;;;;;;;14.02;65.55;96734.13;5119737;28;20090;-50
2023/02/21 08:29:05;;;;;;;6.85;3.53;;;;;;;14.53;61.94;96723.53;5100397;28;20070;-48
2023/02/21 08:31:34;;;;;;;6.03;3.10;;;;;;;14.12;62.02;96720.75;5114146;28;20179;-47
2023/02/21 08:34:03;;;;;;;7.68;3.25;;;;;;;14.16;63.46;96735.34;5106346;28;20031;-50
2023/02/21 08:36:32;;;;;;;5.40;2.70;;;;;;;14.57;61.65;96724.88;5115543;27;20074;-53
2023/02/21 08:39:00;;;;;;;5.35;3.30;;;;;;;14.82;61.83;96718.59;5113481;27;20449;-48
2023/02/21 08:41:37;;;;;;;6.53;3.35;;;;;;;14.09;66.22;96721.06;5106520;27;20083;-48
2023/02/21 08:44:05;;;;;;;5.53;3.10;;;;;;;14.48;60.95;96719.50;5111296;28;20117;-45
2023/02/21 08:46:34;;;;;;;5.90;3.05;;;;;;;14.92;61.44;96721.91;5110683;27;20502;-51
2023/02/21 08:49:04;;;;;;;7.22;3.33;;;;;;;14.53;61.92;96723.53;5109732;28;20071;-51
2023/02/21 08:51:33;;;;;;;5.18;3.10;;;;;;;14.28;62.00;96719.94;5106558;27;20091;-51
2023/02/21 08:54:02;;;;;;;5.93;3.05;;;;;;;14.54;60.83;96715.41;5118486;28;20063;-50
2023/02/21 08:56:30;;;;;;;5.50;3.35;;;;;;;15.24;58.15;96708.81;5107743;28;20071;-51
2023/02/21 08:59:00;;;;;;;6.47;2.70;;;;;;;15.32;57.97;96714.13;5120185;27;20663;-49
2023/02/21 09:01:33;;;;;;;9.27;3.00;;;;;;;15.28;58.85;96715.44;5112266;28;20071;-52
2023/02/21 09:04:01;;;;;;;6.28;2.45;;;;;;;15.44;55.47;96718.06;5119891;27;20091;-54
2023/02/21 09:06:30;;;;;;;5.50;2.88;;;;;;;15.66;54.57;96717.41;5112704;28;20089;-48
2023/02/21 09:08:58;;;;;;;5.30;2.60;;;;;;;15.29;54.85;96723.25;5121806;28;20082;-48
2023/02/21 09:11:26;;;;;;;4.70;2.67;;;;;;;15.02;57.23;96723.59;5109094;28;20083;-50
2023/02/21 09:13:55;;;;;;;5.35;2.80;;;;;;;15.17;56.68;96720.13;5108459;27;20074;-52
2023/02/21 09:16:25;;;;;;;7.65;3.10;;;;;;;15.89;56.04;96717.50;5111990;28;20079;-51
2023/02/21 09:18:55;;;;;;;6.68;2.60;;;;;;;15.83;56.31;96715.53;5102544;27;20444;-53
2023/02/21 09:21:23;;;;;;;;;;;;;;;15.86;54.75;96714.34;5110235;28;20071;-51
2023/02/21 09:23:53;;;;;;;4.28;2.53;;;;;;;16.32;51.18;96709.19;5114911;27;20429;-53
2023/02/21 09:26:23;;;;;;;6.78;2.90;;;;;;;16.12;50.93;96717.56;5122143;27;20077;-55
2023/02/21 09:28:52;;;;;;;5.10;2.65;;;;;;;16.90;50.19;96705.19;5110830;27;20317;-47
2023/02/21 09:31:20;;;;;;;5.70;2.38;;;;;;;16.75;49.35;96712.28;5117633;27;20074;-52
2023/02/21 09:33:50;;;;;;;4.97;2.50;;;;;;;16.90;50.23;96709.69;5103418;27;20076;-54
2023/02/21 09:36:22;;;;;;;5.97;2.70;;;;;;;16.95;47.48;96709.97;5117646;27;20082;-51
2023/02/21 09:38:50;;;;;;;3.10;1.80;;;;;;;17.19;47.55;96704.44;5113503;27;20063;-50
2023/02/21 09:41:20;;;;;;;4.40;2.05;;;;;;;17.27;49.49;96709.72;5112882;27;20079;-53
2023/02/21 09:43:51;;;;;;;4.85;2.45;;;;;;;17.31;47.20;96712.84;5117115;27;20624;-54
2023/02/21 09:46:24;;;;;;;2.35;1.52;;;;;;;17.36;47.10;96712.28;5106447;27;20063;-53
2023/02/21 09:48:54;;;;;;;6.93;2.67;;;;;;;17.91;47.22;96713.75;5116462;27;20075;-47
2023/02/21 09:51:23;;;;;;;7.43;2.60;;;;;;;18.08;47.96;96720.56;5113169;27;20082;-53
2023/02/21 09:53:55;;;;;;;6.38;2.20;;;;;;;17.86;45.07;96717.00;5111442;27;20077;-54
2023/02/21 09:56:27;;;;;;;3.60;1.67;;;;;;;17.16;46.66;96711.97;5111892;27;20078;-51
2023/02/21 09:58:57;;;;;;;2.78;1.63;;;;;;;18.07;45.00;96716.25;5115097;27;20081;-51
2023/02/21 10:01:32;;;;;;;3.83;2.15;;;;;;;17.80;45.47;96720.38;5109574;28;20503;-52
2023/02/21 10:04:13;;;;;;;6.30;2.33;;;;;;;17.83;44.28;96717.34;5108587;27;20063;-49
2023/02/21 10:06:47;;;;;;;5.13;1.98;;;;;;;17.58;46.63;96715.91;5106751;27;20657;-53
2023/02/21 10:09:24;;;;;;;3.20;1.88;;;;;;;17.89;45.93;96719.25;5106446;27;20428;-48
2023/02/21 10:12:03;;;;;;;3.45;2.00;;;;;;;17.58;46.53;96716.72;5121622;27;20083;-48
2023/02/21 10:14:40;;;;;;;4.22;2.20;;;;;;;18.05;45.82;96712.91;5113933;27;20071;-50
2023/02/21 10:17:14;;;;;;;4.90;2.58;;;;;;;17.88;45.65;96720.28;5114851;27;20070;-50
2023/02/21 10:19:48;;;;;;;6.40;2.33;;;;;;;17.87;45.26;96720.47;5110946;27;20097;-55
2023/02/21 10:22:20;;;;;;;4.13;2.45;;;;;;;18.26;45.18;96717.50;5104863;27;20071;-51
2023/02/21 10:24:49;;;;;;;6.53;2.03;;;;;;;18.61;44.29;96715.84;5110653;27;20071;-51
2023/02/21 10:27:20;;;;;;;7.45;2.40;;;;;;;18.90;42.53;96706.13;5109672;27;20067;-50
2023/02/21 10:29:51;;;;;;;7.03;2.47;;;;;;;19.20;41.46;96704.13;5110258;27;20063;-52
2023/02/21 10:32:19;;;;;;;3.30;2.00;;;;;;;19.20;41.38;96712.13;5111116;27;20082;-52
2023/02/21 10:34:49;;;;;;;4.90;2.08;;;;;;;18.56;43.62;96704.91;5109449;27;20534;-53
2023/02/21 10:37:28;;;;;;;5.37;1.87;;;;;;;18.82;45.26;96703.56;5113844;27;20456;-52
2023/02/21 10:40:00;;;;;;;4.43;2.05;;;;;;;18.91;43.80;96699.75;5120519;27;20074;-49
2023/02/21 10:42:46;;;;;;;2.90;1.90;;;;;;;19.10;43.73;96709.00;5115610;27;20093;-50
2023/02/21 10:45:16;;;;;;;3.38;1.77;;;;;;;18.78;42.70;96707.63;5092295;28;20080;-54
2023/02/21 10:47:53;;;;;;;3.80;2.22;;;;;;;19.37;43.85;96704.66;5116764;27;20074;-54
2023/02/21 10:50:43;;;;;;;4.50;2.20;;;;;;;19.49;43.59;96702.31;5103636;27;20636;-55
2023/02/21 10:53:25;;;;;;;5.25;2.53;;;;;;;18.92;43.52;96701.41;5117800;27;20043;-51
2023/02/21 10:56:18;;;;;;;4.97;2.13;;;;;;;19.50;42.01;96693.25;5113738;27;20078;-49
2023/02/21 10:58:48;;;;;;;5.70;1.70;;;;;;;19.48;41.72;96697.97;5105856;27;20075;-54
2023/02/21 11:01:20;;;;;;;1.90;1.08;;;;;;;19.23;42.88;96690.38;5114814;27;20102;-53
2023/02/21 11:03:51;;;;;;;2.70;1.60;;;;;;;19.64;42.03;96682.47;5111090;27;20082;-48
2023/02/21 11:06:27;;;;;;;1.73;1.05;;;;;;;19.35;42.83;96679.97;5117498;27;20086;-50
2023/02/21 11:08:55;;;;;;;2.67;1.25;;;;;;;19.34;43.04;96683.66;5112964;27;20071;-48
2023/02/21 11:11:35;;;;;;;1.30;1.08;;;;;;;19.00;43.75;96682.59;5116216;27;20105;-51
2023/02/21 11:14:20;;;;;;;3.17;1.70;;;;;;;19.32;41.31;96681.19;5100120;27;20063;-49
2023/02/21 11:17:13;;;;;;;3.33;1.60;;;;;;;19.88;40.01;96670.47;5112685;27;20651;-50
2023/02/21 11:19:53;;;;;;;5.53;1.50;;;;;;;19.27;41.81;96672.09;5118093;27;20062;-55
2023/02/21 11:22:25;;;;;;;2.85;1.45;;;;;;;19.09;43.87;96676.06;5104945;27;20078;-51
2023/02/21 11:25:05;;;;;;;3.40;1.23;;;;;;;18.94;44.51;96668.13;5112256;27;20089;-55
2023/02/21 11:27:35;;;;;;;3.50;1.50;;;;;;;19.25;42.03;96661.59;5109905;27;20082;-54
2023/02/21 11:30:11;;;;;;;1.45;0.90;;;;;;;19.46;43.53;96655.38;5112127;27;20075;-53
2023/02/21 11:32:40;;;;;;;3.13;1.73;;;;;;;19.62;40.45;96654.25;5109551;27;20087;-55
2023/02/21 11:35:22;;;;;;;2.03;1.10;;;;;;;19.44;43.36;96646.69;5115798;27;20075;-50
2023/02/21 11:37:55;;;;;;;4.40;1.27;;;;;;;19.08;41.80;96638.84;5115812;27;20070;-49
2023/02/21 11:40:26;;;;;;;2.80;1.60;;;;;;;19.07;42.92;96634.53;5107201;27;20451;-47
2023/02/21 11:43:21;;;;;;;3.05;1.20;;;;;;;19.29;43.44;96630.78;5112510;27;20071;-49
2023/02/21 11:45:59;;;;;;;2.42;1.42;;;;;;;19.45;42.45;96619.78;5103750;28;20083;-50
2023/02/21 11:48:31;;;;;;;2.08;1.25;;;;;;;20.05;41.26;96609.38;5114923;27;20060;-49
2023/02/21 11:51:06;;;;;;;3.10;1.73;;;;;;;19.55;42.23;96603.38;5111899;27;20087;-47
2023/02/21 11:53:40;;;;;;;1.60;1.10;;;;;;;19.80;41.29;96613.63;5119608;27;20086;-50
2023/02/21 11:56:17;;;;;;;2.85;1.40;;;;;;;19.95;41.92;96608.09;5105910;27;20074;-51
2023/02/21 11:58:55;;;;;;;3.00;1.55;;;;;;;19.73;41.45;96612.75;5115962;27;20601;-48
2023/02/21 12:01:28;;;;;;;2.72;1.65;;;;;;;19.97;42.60;96604.22;5116070;27;20081;-52
2023/02/21 12:04:42;;;;;;;2.63;1.40;;;;;;;19.85;42.83;96603.94;5113001;27;20083;-53
2023/02/21 12:07:17;;;;;;;1.98;1.20;;;;;;;20.23;42.90;96598.09;5027536;28;20088;-48
2023/02/21 12:09:53;;;;;;;1.70;1.15;;;;;;;20.54;39.88;96596.75;5010514;28;20079;-49
2023/02/21 12:12:31;;;;;;;2.58;1.45;;;;;;;20.29;40.00;96593.81;5072339;28;20085;-51
2023/02/21 12:15:06;;;;;;;1.55;0.95;;;;;;;20.44;40.60;96586.44;5119312;27;20094;-53
2023/02/21 12:17:52;;;;;;;4.15;1.50;;;;;;;20.66;41.56;96578.25;5101830;28;20538;-50
2023/02/21 12:20:26;;;;;;;3.60;1.65;;;;;;;21.06;41.03;96579.91;5118283;28;20075;-50
2023/02/21 12:23:11;;;;;;;2.92;1.30;;;;;;;20.92;40.01;96583.63;5105767;28;20091;-53
2023/02/21 12:25:52;;;;;;;2.13;1.35;;;;;;;20.69;38.92;96567.13;5114147;28;20063;-47
2023/02/21 12:28:26;;;;;;;3.53;1.50;;;;;;;20.54;37.97;96562.78;5110141;28;20063;-51
2023/02/21 12:31:08;;;;;;;3.08;1.30;;;;;;;21.24;37.94;96559.66;5117272;28;20121;-49
2023/02/21 12:33:44;;;;;;;6.15;1.20;;;;;;;21.28;39.43;96550.16;5115426;28;20402;-52
2023/02/21 12:36:35;;;;;;;3.97;1.40;;;;;;;20.88;38.36;96555.56;5104274;28;20060;-53
2023/02/21 12:39:16;;;;;;;4.63;1.38;;;;;;;20.33;39.90;96546.84;5120239;27;20075;-49
2023/02/21 12:41:50;;;;;;;;;;;;;;;20.69;39.96;96557.22;5107507;28;20495;-50
2023/02/21 12:44:21;;;;;;;2.30;1.20;;;;;;;20.74;38.90;96541.34;5102142;28;19951;-53
2023/02/21 12:46:53;;;;;;;4.18;1.50;;;;;;;20.26;39.40;96541.47;5107371;28;20079;-50
2023/02/21 12:49:24;;;;;;;2.65;1.35;;;;;;;20.58;40.49;96537.22;5108939;28;20079;-52
2023/02/21 12:51:57;;;;;;;2.70;1.35;;;;;;;20.66;39.23;96538.06;5105268;28;20558;-54
2023/02/21 12:54:35;;;;;;;2.22;1.35;;;;;;;20.81;38.82;96526.06;5113042;27;20079;-49
2023/02/21 12:57:08;;;;;;;1.63;1.10;;;;;;;21.03;38.21;96526.69;5120374;27;20070;-55
2023/02/21 12:59:46;;;;;;;2.33;1.33;;;;;;;21.38;38.38;96521.06;5110811;27;20499;-51
2023/02/21 13:02:20;;;;;;;2.65;1.30;;;;;;;21.01;38.77;96520.69;5117430;27;20080;-53
2023/02/21 13:04:54;;;;;;;3.28;1.23;;;;;;;20.95;38.10;96518.00;5112755;27;20105;-57
2023/02/21 13:07:25;;;;;;;2.30;1.30;;;;;;;21.90;37.18;96502.25;5111538;27;20095;-54
2023/02/21 13:09:55;;;;;;;;;;;;;;;21.76;38.15;96499.63;5123205;27;20079;-51
2023/02/21 13:12:27;;;;;;;2.20;1.00;;;;;;;22.12;38.12;96498.19;5108572;27;19959;-55
2023/02/21 13:14:57;;;;;;;2.28;1.13;;;;;;;22.50;36.52;96489.25;5112965;27;20075;-55
2023/02/21 13:17:26;;;;;;;3.30;1.30;;;;;;;22.17;37.33;96492.22;5114862;27;20464;-53
2023/02/21 13:20:00;;;;;;;3.53;1.45;;;;;;;22.02;37.32;96490.63;5115526;27;20075;-53
2023/02/21 13:26:03;;;;;;;2.58;1.40;;;;;;;22.49;35.38;96466.13;5109737;27;21530;-53
2023/02/21 13:28:35;;;;;;;3.57;1.70;;;;;;;21.82;35.99;96463.06;5121687;27;20091;-52
2023/02/21 13:31:05;;;;;;;2.35;1.10;;;;;;;22.47;35.57;96461.00;5112182;27;20071;-50
2023/02/21 13:33:38;;;;;;;2.40;1.10;;;;;;;22.33;36.06;96456.75;5119233;27;20153;-53
2023/02/21 13:36:18;;;;;;;2.80;1.20;;;;;;;21.88;38.57;96454.13;5114077;27;20086;-51
2023/02/21 13:38:47;;;;;;;2.63;0.98;;;;;;;21.96;38.52;96456.56;5115474;27;20087;-51
2023/02/21 13:41:15;;;;;;;2.55;1.27;;;;;;;22.22;37.83;96452.09;5117843;27;20090;-54
2023/02/21 13:43:50;;;;;;;1.65;0.95;;;;;;;22.36;37.95;96445.56;5119242;27;20090;-52
2023/02/21 13:46:57;;;;;;;2.30;1.02;;;;;;;21.86;39.07;96439.31;5113113;27;20474;-49
2023/02/21 13:49:47;;;;;;;2.65;1.20;;;;;;;23.01;35.88;96436.31;5091051;27;20082;-50
2023/02/21 13:52:27;;;;;;;1.17;0.70;;;;;;;23.45;35.84;96429.78;5103147;27;20075;-52
2023/02/21 13:55:25;;;;;;;2.08;0.95;;;;;;;22.40;36.35;96436.03;5109410;27;20079;-52
2023/02/21 13:58:28;;;;;;;1.63;0.80;;;;;;;23.88;34.33;96424.25;5113448;27;20090;-50
2023/02/21 14:01:17;;;;;;;2.22;1.10;;;;;;;22.26;36.60;96431.78;5112552;27;20070;-51
2023/02/21 14:03:46;;;;;;;2.55;1.10;;;;;;;23.13;35.72;96418.38;5114374;27;20110;-47
2023/02/21 14:06:35;;;;;;;2.88;1.10;;;;;;;23.06;36.23;96420.34;5115084;27;20087;-50
2023/02/21 14:09:07;;;;;;;2.15;1.05;;;;;;;23.06;35.42;96421.16;5108788;27;20444;-51
2023/02/21 14:11:38;;;;;;;1.88;1.08;;;;;;;22.56;36.53;96417.69;5106982;28;20562;-54
2023/02/21 14:14:20;;;;;;;2.53;0.90;;;;;;;22.74;36.49;96412.34;5115889;27;20067;-52
2023/02/21 14:16:53;;;;;;;3.65;1.30;;;;;;;23.17;34.82;96404.25;5115046;27;20067;-48